createdAt,value
2023-02-06T00:00:46.718Z,103435.00
2023-02-06T00:03:13.111Z,103428.47
2023-02-06T00:05:39.652Z,103424.06
2023-02-06T00:08:07.128Z,103426.38
2023-02-06T00:10:33.649Z,103423.50
2023-02-06T00:12:59.996Z,103434.41
2023-02-06T00:15:26.351Z,103442.28
2023-02-06T00:17:52.745Z,103430.78
2023-02-06T00:20:19.100Z,103432.13
2023-02-06T00:22:45.432Z,103445.00
2023-02-06T00:25:11.832Z,103445.00
2023-02-06T00:27:38.167Z,103454.78
2023-02-06T00:30:04.675Z,103459.19
2023-02-06T00:32:31.064Z,103467.06
2023-02-06T00:34:57.491Z,103467.06
2023-02-06T00:37:23.853Z,103470.72
2023-02-06T00:39:50.204Z,103466.47
2023-02-06T00:42:16.589Z,103450.56
2023-02-06T00:44:44.364Z,103445.00
2023-02-06T00:47:10.694Z,103453.63
2023-02-06T00:49:37.019Z,103462.25
2023-02-06T00:52:03.360Z,103460.72
2023-02-06T00:54:29.682Z,103454.97
2023-02-06T00:56:56.455Z,103453.25
2023-02-06T00:59:22.784Z,103463.41
2023-02-06T01:01:49.212Z,103448.84
2023-02-06T01:04:15.584Z,103448.84
2023-02-06T01:06:41.926Z,103449.63
2023-02-06T01:09:08.260Z,103460.34
2023-02-06T01:11:34.902Z,103465.53
2023-02-06T01:14:01.303Z,103461.88
2023-02-06T01:16:27.703Z,103456.13
2023-02-06T01:18:54.100Z,103440.38
2023-02-06T01:21:21.446Z,103433.88
2023-02-06T01:23:48.185Z,103438.88
2023-02-06T01:26:14.881Z,103443.88
2023-02-06T01:28:42.266Z,103441.56
2023-02-06T01:31:11.913Z,103435.06
2023-02-06T01:33:38.528Z,103434.28
2023-02-06T01:36:04.881Z,103440.03
2023-02-06T01:38:31.230Z,103431.25
2023-02-06T01:40:58.524Z,103422.59
2023-02-06T01:43:25.544Z,103419.13
2023-02-06T01:45:52.956Z,103418.00
2023-02-06T01:48:20.670Z,103406.31
2023-02-06T01:50:48.176Z,103407.09
2023-02-06T01:53:14.759Z,103398.47
2023-02-06T01:55:41.088Z,103396.34
2023-02-06T01:58:07.648Z,103394.81
2023-02-06T02:00:34.575Z,103390.41
2023-02-06T02:03:00.924Z,103379.50
2023-02-06T02:05:27.257Z,103378.72
2023-02-06T02:08:01.052Z,103378.72
2023-02-06T02:10:28.525Z,103372.22
2023-02-06T02:12:54.881Z,103380.09
2023-02-06T02:15:21.928Z,103381.59
2023-02-06T02:17:55.032Z,103372.22
2023-02-06T02:20:27.352Z,103361.47
2023-02-06T02:23:06.024Z,103369.53
2023-02-06T02:25:52.055Z,103374.50
2023-02-06T02:28:26.970Z,103368.75
2023-02-06T02:31:07.831Z,103362.66
2023-02-06T02:33:42.714Z,103367.03
2023-02-06T02:36:29.587Z,103371.47
2023-02-06T02:39:17.369Z,103355.72
2023-02-06T02:41:55.623Z,103348.44
2023-02-06T02:44:34.087Z,103346.91
2023-02-06T02:47:00.915Z,103342.69
2023-02-06T03:09:26.152Z,103326.59
2023-02-06T03:11:55.779Z,103338.09
2023-02-06T03:14:29.202Z,103344.41
2023-02-06T03:16:57.692Z,103350.31
2023-02-06T03:19:29.903Z,103350.31
2023-02-06T03:21:56.239Z,103356.09
2023-02-06T03:24:26.446Z,103353.38
2023-02-06T03:26:54.240Z,103351.84
2023-02-06T03:29:20.559Z,103341.88
2023-02-06T03:31:56.833Z,103341.88
2023-02-06T03:34:25.064Z,103336.13
2023-02-06T03:36:51.694Z,103335.34
2023-02-06T03:39:18.045Z,103341.09
2023-02-06T03:41:44.393Z,103330.38
2023-02-06T03:44:10.793Z,103325.38
2023-02-06T03:46:37.195Z,103320.38
2023-02-06T03:49:04.410Z,103314.63
2023-02-06T03:51:35.151Z,103310.41
2023-02-06T03:54:02.296Z,103316.16
2023-02-06T03:56:33.051Z,103317.69
2023-02-06T03:58:59.371Z,103326.31
2023-02-06T04:01:25.754Z,103336.44
2023-02-06T04:03:52.099Z,103343.00
2023-02-06T04:06:18.440Z,103332.06
2023-02-06T04:08:44.769Z,103335.69
2023-02-06T04:11:11.097Z,103334.94
2023-02-06T04:13:37.449Z,103334.19
2023-02-06T04:16:03.770Z,103335.50
2023-02-06T04:18:30.103Z,103339.19
2023-02-06T04:20:56.431Z,103331.13
2023-02-06T04:23:22.766Z,103333.44
2023-02-06T04:25:49.093Z,103326.88
2023-02-06T04:28:15.549Z,103316.91
2023-02-06T04:30:42.083Z,103322.69
2023-02-06T04:33:08.518Z,103319.19
2023-02-06T04:35:35.306Z,103320.56
2023-02-06T04:38:01.839Z,103324.94
2023-02-06T04:40:28.176Z,103323.44
2023-02-06T04:42:54.547Z,103319.97
2023-02-06T04:45:20.863Z,103313.44
2023-02-06T04:47:50.197Z,103306.16
2023-02-06T04:50:16.978Z,103301.16
2023-02-06T04:52:43.329Z,103296.78
2023-02-06T04:55:09.679Z,103286.59
2023-02-06T04:57:36.018Z,103290.09
2023-02-06T05:00:02.329Z,103294.47
2023-02-06T05:02:28.731Z,103293.91
2023-02-06T05:04:55.078Z,103287.41
2023-02-06T05:07:21.484Z,103288.91
2023-02-06T05:09:47.804Z,103294.06
2023-02-06T05:12:14.403Z,103294.06
2023-02-06T05:14:40.790Z,103291.97
2023-02-06T05:17:07.122Z,103287.72
2023-02-06T05:19:33.444Z,103289.25
2023-02-06T05:21:59.778Z,103295.00
2023-02-06T05:24:26.128Z,103295.78
2023-02-06T05:26:52.456Z,103306.53
2023-02-06T05:29:18.779Z,103307.09
2023-02-06T05:31:45.146Z,103303.47
2023-02-06T05:34:11.485Z,103294.66
2023-02-06T05:36:37.822Z,103296.03
2023-02-06T05:39:04.695Z,103296.16
2023-02-06T05:41:31.051Z,103293.91
2023-02-06T05:43:57.385Z,103294.47
2023-02-06T05:46:23.731Z,103297.34
2023-02-06T05:48:50.067Z,103296.59
2023-02-06T05:51:16.872Z,103302.94
2023-02-06T05:53:43.205Z,103302.94
2023-02-06T05:56:09.568Z,103309.28
2023-02-06T05:58:35.905Z,103302.75
2023-02-06T06:01:02.251Z,103304.31
2023-02-06T06:03:28.593Z,103313.09
2023-02-06T06:05:55.017Z,103307.69
2023-02-06T06:08:21.366Z,103313.97
2023-02-06T06:10:49.536Z,103313.97
2023-02-06T06:13:15.861Z,103312.19
2023-02-06T06:15:43.203Z,103318.31
2023-02-06T06:18:09.552Z,103319.31
2023-02-06T06:20:35.871Z,103319.91
2023-02-06T06:23:02.197Z,103323.34
2023-02-06T06:25:28.554Z,103334.88
2023-02-06T06:27:54.933Z,103338.53
2023-02-06T06:30:21.319Z,103335.66
2023-02-06T06:32:47.647Z,103339.09
2023-02-06T06:35:14.016Z,103332.59
2023-02-06T06:37:40.349Z,103326.09
2023-02-06T06:40:06.803Z,103327.59
2023-02-06T06:42:33.196Z,103319.97
2023-02-06T06:44:59.562Z,103329.53
2023-02-06T06:47:25.909Z,103318.78
2023-02-06T06:49:52.250Z,103313.78
2023-02-06T06:52:25.016Z,103313.66
2023-02-06T06:54:52.657Z,103302.72
2023-02-06T06:57:19.253Z,103311.13
2023-02-06T06:59:45.577Z,103309.56
2023-02-06T07:02:11.924Z,103312.63
2023-02-06T07:04:38.294Z,103306.81
2023-02-06T07:07:04.672Z,103307.47
2023-02-06T07:09:31.026Z,103302.63
2023-02-06T07:11:57.359Z,103305.28
2023-02-06T07:14:23.679Z,103301.63
2023-02-06T07:16:49.989Z,103324.50
2023-02-06T07:19:16.310Z,103322.38
2023-02-06T07:21:42.658Z,103315.94
2023-02-06T07:24:09.012Z,103322.72
2023-02-06T07:26:42.274Z,103315.09
2023-02-06T07:29:08.677Z,103309.41
2023-02-06T07:31:35.021Z,103312.63
2023-02-06T07:34:02.281Z,103320.50
2023-02-06T07:36:28.684Z,103326.28
2023-02-06T07:38:55.053Z,103329.66
2023-02-06T07:41:21.386Z,103339.06
2023-02-06T07:43:48.057Z,103342.19
2023-02-06T07:46:14.398Z,103345.78
2023-02-06T07:48:40.901Z,103340.34
2023-02-06T07:51:07.440Z,103338.06
2023-02-06T07:53:34.036Z,103336.09
2023-02-06T07:56:00.367Z,103334.84
2023-02-06T07:58:26.740Z,103325.25
2023-02-06T08:00:54.666Z,103333.06
2023-02-06T08:03:21.089Z,103326.69
2023-02-06T08:05:47.409Z,103332.72
2023-02-06T08:08:13.736Z,103332.09
2023-02-06T08:10:40.062Z,103329.06
2023-02-06T08:13:06.385Z,103333.72
2023-02-06T08:15:32.705Z,103331.09
2023-02-06T08:17:59.036Z,103326.09
2023-02-06T08:20:25.459Z,103329.56
2023-02-06T08:22:51.804Z,103332.03
2023-02-06T08:25:18.131Z,103317.63
2023-02-06T08:27:44.497Z,103326.09
2023-02-06T08:30:11.105Z,103330.38
2023-02-06T08:32:37.418Z,103326.78
2023-02-06T08:35:03.746Z,103332.34
2023-02-06T08:37:31.021Z,103332.03
2023-02-06T08:39:57.361Z,103328.91
2023-02-06T08:42:23.682Z,103320.44
2023-02-06T08:44:50.153Z,103322.00
2023-02-06T08:47:16.477Z,103325.63
2023-02-06T08:49:42.822Z,103334.25
2023-02-06T08:52:09.159Z,103331.13
2023-02-06T08:54:37.740Z,103324.66
2023-02-06T08:57:06.553Z,103325.56
2023-02-06T08:59:33.816Z,103323.25
2023-02-06T09:02:00.145Z,103320.34
2023-02-06T09:04:28.704Z,103321.38
2023-02-06T09:06:55.025Z,103322.47
2023-02-06T09:09:21.354Z,103314.75
2023-02-06T09:11:47.811Z,103320.22
2023-02-06T09:14:15.187Z,103323.28
2023-02-06T09:16:41.826Z,103328.09
2023-02-06T09:19:08.372Z,103333.88
2023-02-06T09:21:34.841Z,103338.09
2023-02-06T09:24:02.337Z,103337.53
2023-02-06T09:26:33.195Z,103340.47
2023-02-06T09:29:00.144Z,103340.91
2023-02-06T09:31:26.962Z,103353.84
2023-02-06T09:33:53.307Z,103357.94
2023-02-06T09:36:20.005Z,103350.59
2023-02-06T09:38:46.928Z,103366.69
2023-02-06T09:41:33.458Z,103375.31
2023-02-06T09:44:18.498Z,103368.81
2023-02-06T09:46:58.513Z,103374.53
2023-02-06T09:49:29.809Z,103371.81
2023-02-06T09:51:59.310Z,103365.72
2023-02-06T09:54:29.480Z,103371.13
2023-02-06T09:57:05.299Z,103362.78
2023-02-06T09:59:39.487Z,103354.94
2023-02-06T10:02:29.607Z,103348.25
2023-02-06T10:05:01.982Z,103349.09
2023-02-06T10:07:35.688Z,103359.28
2023-02-06T10:10:04.075Z,103366.69
2023-02-06T10:12:38.915Z,103378.09
2023-02-06T10:15:25.459Z,103369.75
2023-02-06T10:17:56.765Z,103376.84
2023-02-06T10:20:32.865Z,103389.88
2023-02-06T10:23:03.352Z,103396.53
2023-02-06T10:25:37.019Z,103396.53
2023-02-06T10:28:10.273Z,103398.22
2023-02-06T10:30:45.940Z,103390.03
2023-02-06T10:33:25.393Z,103390.25
2023-02-06T10:36:18.185Z,103385.22
2023-02-06T10:38:51.191Z,103386.41
2023-02-06T10:41:24.088Z,103383.16
2023-02-06T10:44:01.227Z,103380.69
2023-02-06T10:46:34.520Z,103378.22
2023-02-06T10:49:02.449Z,103368.81
2023-02-06T10:51:32.965Z,103371.69
2023-02-06T10:54:03.285Z,103362.88
2023-02-06T10:56:30.604Z,103360.91
2023-02-06T10:59:00.859Z,103356.25
2023-02-06T11:01:27.720Z,103365.78
2023-02-06T11:04:03.544Z,103366.84
2023-02-06T11:06:29.980Z,103363.97
2023-02-06T11:08:56.322Z,103359.75
2023-02-06T11:11:26.571Z,103354.13
2023-02-06T11:14:05.092Z,103367.34
2023-02-06T11:16:31.495Z,103378.56
2023-02-06T11:18:59.321Z,103383.16
2023-02-06T11:21:40.853Z,103370.56
2023-02-06T11:24:14.221Z,103366.81
2023-02-06T11:26:41.036Z,103375.63
2023-02-06T11:29:17.708Z,103384.28
2023-02-06T11:31:50.237Z,103383.56
2023-02-06T11:34:19.627Z,103395.16
2023-02-06T11:36:45.949Z,103379.81
2023-02-06T11:39:31.011Z,103386.66
2023-02-06T11:41:58.134Z,103386.63
2023-02-06T11:44:25.181Z,103394.34
2023-02-06T11:46:51.532Z,103387.91
2023-02-06T11:49:25.259Z,103380.78
2023-02-06T11:51:51.785Z,103389.34
2023-02-06T11:54:22.367Z,103384.19
2023-02-06T11:56:58.636Z,103391.59
2023-02-06T11:59:26.998Z,103392.59
2023-02-06T12:01:53.359Z,103381.44
2023-02-06T12:04:34.121Z,103381.94
2023-02-06T12:07:02.614Z,103390.00
2023-02-06T12:09:28.980Z,103393.38
2023-02-06T12:12:13.133Z,103389.56
2023-02-06T12:14:44.623Z,103393.38
2023-02-06T12:17:20.977Z,103400.69
2023-02-06T12:19:48.766Z,103396.88
2023-02-06T12:22:22.210Z,103401.88
2023-02-06T12:24:54.871Z,103394.56
2023-02-06T12:27:29.678Z,103389.47
2023-02-06T12:29:55.926Z,103393.44
2023-02-06T12:32:24.199Z,103397.25
2023-02-06T12:34:54.419Z,103395.88
2023-02-06T12:37:39.692Z,103403.19
2023-02-06T12:40:18.191Z,103412.00
2023-02-06T12:42:47.899Z,103420.47
2023-02-06T12:45:25.105Z,103415.88
2023-02-06T12:47:54.168Z,103417.09
2023-02-06T12:50:24.832Z,103415.88
2023-02-06T12:53:06.365Z,103425.31
2023-02-06T12:55:37.560Z,103431.69
2023-02-06T12:58:04.684Z,103433.97
2023-02-06T13:00:45.644Z,103440.28
2023-02-06T13:03:18.115Z,103436.47
2023-02-06T13:05:46.842Z,103429.47
2023-02-06T13:08:20.661Z,103443.34
2023-02-06T13:10:48.163Z,103438.50
2023-02-06T13:13:34.671Z,103439.44
2023-02-06T13:16:01.047Z,103440.53
2023-02-06T13:18:34.584Z,103435.50
2023-02-06T13:21:20.834Z,103430.81
2023-02-06T13:24:02.480Z,103436.16
2023-02-06T13:26:43.830Z,103437.69
2023-02-06T13:29:21.593Z,103446.34
2023-02-06T13:31:48.174Z,103436.94
2023-02-06T13:34:15.840Z,103437.44
2023-02-06T13:36:42.169Z,103446.78
2023-02-06T13:39:21.266Z,103433.13
2023-02-06T13:41:47.606Z,103436.00
2023-02-06T13:44:18.976Z,103438.13
2023-02-06T13:46:52.849Z,103436.00
2023-02-06T13:49:36.594Z,103444.03
2023-02-06T13:52:08.999Z,103443.09
2023-02-06T13:54:55.647Z,103441.00
2023-02-06T13:57:23.518Z,103447.66
2023-02-06T14:00:08.881Z,103448.06
2023-02-06T14:02:40.097Z,103455.78
2023-02-06T14:05:09.432Z,103448.34
2023-02-06T14:07:41.836Z,103459.34
2023-02-06T14:10:13.463Z,103462.63
2023-02-06T14:12:55.852Z,103471.72
2023-02-06T14:15:41.066Z,103477.31
2023-02-06T14:18:15.312Z,103472.91
2023-02-06T14:20:47.815Z,103471.03
2023-02-06T14:23:25.456Z,103470.53
2023-02-06T14:25:55.555Z,103475.28
2023-02-06T14:28:24.685Z,103475.63
2023-02-06T14:30:55.673Z,103479.91
2023-02-06T14:33:40.965Z,103472.53
2023-02-06T14:36:07.238Z,103482.72
2023-02-06T14:38:52.108Z,103491.38
2023-02-06T14:41:18.438Z,103494.25
2023-02-06T14:43:44.846Z,103494.09
2023-02-06T14:46:14.929Z,103504.88
2023-02-06T14:48:44.330Z,103507.91
2023-02-06T14:51:29.574Z,103520.69
2023-02-06T14:53:56.964Z,103522.06
2023-02-06T14:56:27.657Z,103528.59
2023-02-06T14:58:54.052Z,103527.09
2023-02-06T15:01:24.214Z,103519.03
2023-02-06T15:03:52.440Z,103529.81
2023-02-06T15:06:32.544Z,103527.84
2023-02-06T15:08:58.897Z,103540.91
2023-02-06T15:11:25.992Z,103525.88
2023-02-06T15:13:53.342Z,103520.50
2023-02-06T15:16:19.765Z,103539.88
2023-02-06T15:18:46.153Z,103541.41
2023-02-06T15:21:13.491Z,103551.00
2023-02-06T15:23:54.047Z,103541.41
2023-02-06T15:26:23.246Z,103555.44
2023-02-06T15:28:54.504Z,103549.59
2023-02-06T15:31:20.963Z,103560.69
2023-02-06T15:33:48.400Z,103556.66
2023-02-06T15:36:20.121Z,103559.03
2023-02-06T15:38:46.488Z,103565.66
2023-02-06T15:41:12.813Z,103572.47
2023-02-06T15:43:39.134Z,103576.22
2023-02-06T15:46:05.620Z,103570.13
2023-02-06T15:48:36.107Z,103565.34
2023-02-06T15:51:02.360Z,103574.00
2023-02-06T15:53:35.918Z,103588.09
2023-02-06T15:56:02.303Z,103598.09
2023-02-06T15:58:28.657Z,103602.69
2023-02-06T16:00:55.648Z,103604.59
2023-02-06T16:03:22.937Z,103606.94
2023-02-06T16:05:49.256Z,103597.69
2023-02-06T16:08:26.333Z,103606.94
2023-02-06T16:10:57.182Z,103598.13
2023-02-06T16:13:25.049Z,103594.22
2023-02-06T16:16:07.154Z,103597.28
2023-02-06T16:18:34.458Z,103597.69
2023-02-06T16:21:11.661Z,103603.03
2023-02-06T16:23:45.097Z,103613.03
2023-02-06T16:26:21.609Z,103607.28
2023-02-06T16:28:51.040Z,103607.88
2023-02-06T16:31:17.552Z,103610.94
2023-02-06T16:33:44.692Z,103617.31
2023-02-06T16:36:14.510Z,103611.69
2023-02-06T16:38:43.150Z,103612.88
2023-02-06T16:41:26.750Z,103606.94
2023-02-06T16:43:53.677Z,103618.06
2023-02-06T16:46:20.069Z,103623.25
2023-02-06T16:48:46.388Z,103626.91
2023-02-06T16:51:16.249Z,103636.13
2023-02-06T16:53:42.610Z,103628.84
2023-02-06T16:56:12.770Z,103636.13
2023-02-06T16:58:39.144Z,103644.03
2023-02-06T17:01:08.407Z,103641.91
2023-02-06T17:03:34.790Z,103641.53
2023-02-06T17:06:01.149Z,103633.44
2023-02-06T17:08:27.501Z,103630.56
2023-02-06T17:10:53.831Z,103632.25
2023-02-06T17:13:21.051Z,103633.84
2023-02-06T17:15:47.741Z,103642.06
2023-02-06T17:18:14.601Z,103641.75
2023-02-06T17:20:41.877Z,103646.84
2023-02-06T17:23:10.495Z,103642.13
2023-02-06T17:25:37.885Z,103654.00
2023-02-06T17:28:06.853Z,103652.47
2023-02-06T17:30:33.497Z,103656.88
2023-02-06T17:32:59.841Z,103653.84
2023-02-06T17:35:26.175Z,103656.09
2023-02-06T17:37:52.534Z,103655.16
2023-02-06T17:40:22.925Z,103656.88
2023-02-06T17:42:49.271Z,103653.88
2023-02-06T17:45:15.764Z,103656.56
2023-02-06T17:47:42.126Z,103657.22
2023-02-06T17:50:08.943Z,103658.50
2023-02-06T17:52:35.431Z,103661.41
2023-02-06T17:55:01.772Z,103673.06
2023-02-06T17:57:29.789Z,103676.13
2023-02-06T17:59:56.113Z,103666.63
2023-02-06T18:02:22.487Z,103672.97
2023-02-06T18:04:52.869Z,103665.59
2023-02-06T18:07:19.238Z,103664.88
2023-02-06T18:09:47.008Z,103670.28
2023-02-06T18:12:13.605Z,103668.41
2023-02-06T18:14:40.479Z,103664.88
2023-02-06T18:17:07.066Z,103647.94
2023-02-06T18:19:41.309Z,103662.53
2023-02-06T18:22:11.476Z,103653.69
2023-02-06T18:24:37.813Z,103652.19
2023-02-06T18:27:05.590Z,103651.81
2023-02-06T18:29:43.641Z,103658.94
2023-02-06T18:32:15.198Z,103653.00
2023-02-06T18:34:41.585Z,103650.69
2023-02-06T18:37:08.758Z,103652.63
2023-02-06T18:39:35.121Z,103639.59
2023-02-06T18:42:20.185Z,103654.53
2023-02-06T18:44:46.561Z,103655.78
2023-02-06T18:47:14.257Z,103658.78
2023-02-06T18:49:40.576Z,103645.44
2023-02-06T18:52:07.038Z,103668.63
2023-02-06T18:54:33.655Z,103668.41
2023-02-06T18:57:00.117Z,103660.69
2023-02-06T18:59:26.453Z,103663.34
2023-02-06T19:01:53.781Z,103659.88
2023-02-06T19:04:20.620Z,103670.66
2023-02-06T19:06:47.135Z,103651.06
2023-02-06T19:09:13.454Z,103668.94
2023-02-06T19:11:40.084Z,103675.69
2023-02-06T19:14:06.934Z,103682.44
2023-02-06T19:16:34.129Z,103671.91
2023-02-06T19:19:01.501Z,103672.25
2023-02-06T19:21:28.162Z,103680.38
2023-02-06T19:23:57.876Z,103674.59
2023-02-06T19:26:24.274Z,103686.53
2023-02-06T19:28:50.614Z,103691.53
2023-02-06T19:31:23.661Z,103697.09
2023-02-06T19:33:50.745Z,103695.72
2023-02-06T19:36:17.159Z,103702.09
2023-02-06T19:38:43.493Z,103704.22
2023-02-06T19:41:11.298Z,103705.66
2023-02-06T19:43:37.644Z,103698.88
2023-02-06T19:46:07.643Z,103711.13
2023-02-06T19:48:34.034Z,103715.56
2023-02-06T19:51:06.932Z,103708.44
2023-02-06T19:53:34.217Z,103701.16
2023-02-06T19:56:03.548Z,103709.78
2023-02-06T19:58:31.425Z,103705.19
2023-02-06T20:00:58.136Z,103708.06
2023-02-06T20:03:24.544Z,103721.50
2023-02-06T20:05:50.889Z,103714.22
2023-02-06T20:08:17.245Z,103718.25
2023-02-06T20:10:43.613Z,103715.38
2023-02-06T20:13:10.055Z,103697.34
2023-02-06T20:15:39.184Z,103692.94
2023-02-06T20:18:05.542Z,103702.91
2023-02-06T20:20:35.159Z,103704.28
2023-02-06T20:23:01.655Z,103714.44
2023-02-06T20:25:27.985Z,103723.84
2023-02-06T20:27:54.384Z,103717.31
2023-02-06T20:30:22.020Z,103702.72
2023-02-06T20:32:48.376Z,103710.59
2023-02-06T20:35:14.706Z,103712.50
2023-02-06T20:37:41.035Z,103707.31
2023-02-06T20:40:07.445Z,103705.22
2023-02-06T20:42:34.619Z,103708.09
2023-02-06T20:45:00.951Z,103711.75
2023-02-06T20:47:27.373Z,103716.75
2023-02-06T20:49:53.702Z,103703.09
2023-02-06T20:52:20.141Z,103703.88
2023-02-06T20:54:46.497Z,103703.88
2023-02-06T20:57:12.838Z,103697.16
2023-02-06T20:59:39.204Z,103705.22
2023-02-06T21:02:05.731Z,103702.34
2023-02-06T21:04:32.906Z,103715.19
2023-02-06T21:06:59.285Z,103705.78
2023-02-06T21:09:25.643Z,103707.91
2023-02-06T21:11:51.980Z,103715.78
2023-02-06T21:14:18.355Z,103722.31
2023-02-06T21:16:44.743Z,103723.66
2023-02-06T21:19:11.462Z,103727.69
2023-02-06T21:21:37.784Z,103731.91
2023-02-06T21:24:04.310Z,103736.13
2023-02-06T21:26:30.645Z,103733.44
2023-02-06T21:28:58.259Z,103732.09
2023-02-06T21:31:25.231Z,103731.34
2023-02-06T21:33:51.666Z,103726.16
2023-02-06T21:36:18.008Z,103725.00
2023-02-06T21:38:44.347Z,103735.00
2023-02-06T21:41:14.084Z,103738.44
2023-02-06T21:43:40.437Z,103737.50
2023-02-06T21:46:06.828Z,103727.34
2023-02-06T21:48:33.253Z,103729.47
2023-02-06T21:50:59.621Z,103735.03
2023-02-06T21:53:25.995Z,103730.03
2023-02-06T21:55:52.309Z,103733.66
2023-02-06T21:58:18.638Z,103732.34
2023-02-06T22:00:45.500Z,103732.69
2023-02-06T22:03:11.915Z,103732.69
2023-02-06T22:05:38.474Z,103730.59
2023-02-06T22:08:04.996Z,103729.63
2023-02-06T22:10:31.374Z,103729.63
2023-02-06T22:12:57.728Z,103733.09
2023-02-06T22:15:24.080Z,103742.50
2023-02-06T22:17:50.395Z,103741.53
2023-02-06T22:20:16.710Z,103747.69
2023-02-06T22:22:43.047Z,103740.00
2023-02-06T22:25:11.557Z,103737.72
2023-02-06T22:27:38.012Z,103743.47
2023-02-06T22:30:04.967Z,103740.03
2023-02-06T22:32:31.316Z,103746.16
2023-02-06T22:35:00.521Z,103747.69
2023-02-06T22:37:27.129Z,103741.94
2023-02-06T22:39:56.293Z,103731.78
2023-02-06T22:42:22.847Z,103736.16
2023-02-06T22:44:49.196Z,103740.41
2023-02-06T22:47:15.532Z,103749.81
2023-02-06T22:49:41.854Z,103741.56
2023-02-06T22:52:28.130Z,103745.78
2023-02-06T22:54:54.475Z,103748.47
2023-02-06T22:57:20.839Z,103748.88
2023-02-06T22:59:47.195Z,103752.69
2023-02-06T23:02:13.544Z,103754.22
2023-02-06T23:04:40.636Z,103751.56
2023-02-06T23:07:07.200Z,103758.06
2023-02-06T23:09:34.177Z,103753.66
2023-02-06T23:12:00.954Z,103749.44
2023-02-06T23:14:27.758Z,103750.00
2023-02-06T23:16:54.176Z,103760.75
2023-02-06T23:19:20.512Z,103759.59
2023-02-06T23:21:47.170Z,103763.44
2023-02-06T23:24:14.375Z,103762.13
2023-02-06T23:26:41.108Z,103751.94
2023-02-06T23:29:07.437Z,103754.63
2023-02-06T23:31:33.815Z,103759.59
2023-02-06T23:34:00.648Z,103760.38
2023-02-06T23:36:27.155Z,103768.22
2023-02-06T23:38:53.536Z,103765.56
2023-02-06T23:41:20.652Z,103784.94
2023-02-06T23:43:52.578Z,103785.50
2023-02-06T23:46:19.979Z,103782.59
2023-02-06T23:48:46.840Z,103773.97
2023-02-06T23:51:13.198Z,103780.31
2023-02-06T23:53:39.534Z,103784.53
2023-02-06T23:56:09.888Z,103782.25
2023-02-06T23:58:36.252Z,103782.81
